createdAt,value
2018-09-03T00:00:02.481Z,15.80
2018-09-03T00:00:36.103Z,15.78
2018-09-03T00:01:09.699Z,16.60
2018-09-03T00:01:43.827Z,16.25
2018-09-03T00:02:17.915Z,16.45
2018-09-03T00:02:51.473Z,15.48
2018-09-03T00:03:24.990Z,16.35
2018-09-03T00:03:58.547Z,16.07
2018-09-03T00:04:32.105Z,16.90
2018-09-03T00:05:05.729Z,16.65
2018-09-03T00:05:39.253Z,16.27
2018-09-03T00:06:12.899Z,17.05
2018-09-03T00:06:46.441Z,16.07
2018-09-03T00:07:19.994Z,16.70
2018-09-03T00:07:53.503Z,16.30
2018-09-03T00:08:27.115Z,16.02
2018-09-03T00:09:00.660Z,17.30
2018-09-03T00:09:41.897Z,16.55
2018-09-03T00:10:15.445Z,15.80
2018-09-03T00:10:48.999Z,15.80
2018-09-03T00:11:22.551Z,16.42
2018-09-03T00:11:56.079Z,16.40
2018-09-03T00:12:29.590Z,17.07
2018-09-03T00:13:03.096Z,17.92
2018-09-03T00:13:36.681Z,17.07
2018-09-03T00:14:10.179Z,17.50
2018-09-03T00:14:43.695Z,17.85
2018-09-03T00:15:17.262Z,17.62
2018-09-03T00:15:50.793Z,16.95
2018-09-03T00:16:24.365Z,18.15
2018-09-03T00:16:57.938Z,17.57
2018-09-03T00:17:31.467Z,16.77
2018-09-03T00:18:05.263Z,17.67
2018-09-03T00:18:39.001Z,17.07
2018-09-03T00:19:12.581Z,17.10
2018-09-03T00:19:46.105Z,18.10
2018-09-03T00:20:19.667Z,16.90
2018-09-03T00:20:53.192Z,17.42
2018-09-03T00:21:26.716Z,17.17
2018-09-03T00:22:00.221Z,18.07
2018-09-03T00:22:33.777Z,16.87
2018-09-03T00:23:07.318Z,17.60
2018-09-03T00:23:40.881Z,17.60
2018-09-03T00:24:14.412Z,17.45
2018-09-03T00:24:47.915Z,17.98
2018-09-03T00:25:21.473Z,18.57
2018-09-03T00:25:55.031Z,18.15
2018-09-03T00:26:28.568Z,18.55
2018-09-03T00:27:02.108Z,18.23
2018-09-03T00:27:35.628Z,18.55
2018-09-03T00:28:09.133Z,18.05
2018-09-03T00:28:42.685Z,17.62
2018-09-03T00:29:16.229Z,17.60
2018-09-03T00:29:49.751Z,18.52
2018-09-03T00:30:23.321Z,18.25
2018-09-03T00:31:02.624Z,17.52
2018-09-03T00:31:41.967Z,17.80
2018-09-03T00:32:21.374Z,17.40
2018-09-03T00:33:00.703Z,17.50
2018-09-03T00:33:40.003Z,17.40
2018-09-03T00:34:19.325Z,17.02
2018-09-03T00:34:58.652Z,17.42
2018-09-03T00:35:38.006Z,17.10
2018-09-03T00:36:17.197Z,17.42
2018-09-03T00:36:59.664Z,17.35
2018-09-03T00:37:38.940Z,17.50
2018-09-03T00:38:18.185Z,17.45
2018-09-03T00:38:57.411Z,17.73
2018-09-03T00:39:36.612Z,17.70
2018-09-03T00:40:15.774Z,17.95
2018-09-03T00:40:55.062Z,18.00
2018-09-03T00:41:34.332Z,16.95
2018-09-03T00:42:13.620Z,16.87
2018-09-03T00:42:52.892Z,17.12
2018-09-03T00:43:32.064Z,17.47
2018-09-03T00:44:11.436Z,16.82
2018-09-03T00:44:50.783Z,17.02
2018-09-03T00:45:30.077Z,16.70
2018-09-03T00:46:09.285Z,16.45
2018-09-03T00:46:48.575Z,17.10
2018-09-03T00:47:22.093Z,16.57
2018-09-03T00:47:55.613Z,16.20
2018-09-03T00:48:29.160Z,16.57
2018-09-03T00:49:02.750Z,16.85
2018-09-03T00:49:36.305Z,17.02
2018-09-03T00:50:09.877Z,16.42
2018-09-03T00:50:43.492Z,17.52
2018-09-03T00:51:17.280Z,17.25
2018-09-03T00:51:50.839Z,17.05
2018-09-03T00:52:24.397Z,17.35
2018-09-03T00:52:57.963Z,17.37
2018-09-03T00:53:31.493Z,17.17
2018-09-03T00:54:05.275Z,17.27
2018-09-03T00:54:39.381Z,17.35
2018-09-03T00:55:12.899Z,16.93
2018-09-03T00:55:46.425Z,17.27
2018-09-03T00:56:19.949Z,17.12
2018-09-03T00:56:53.713Z,17.23
2018-09-03T00:57:27.381Z,17.37
2018-09-03T00:58:00.957Z,16.82
2018-09-03T00:58:34.467Z,17.12
2018-09-03T00:59:07.987Z,17.37
2018-09-03T00:59:41.569Z,17.32
2018-09-03T01:00:15.105Z,17.55
2018-09-03T01:00:48.655Z,16.93
2018-09-03T01:01:22.235Z,17.55
2018-09-03T01:01:55.787Z,16.70
2018-09-03T01:02:29.345Z,17.02
2018-09-03T01:03:03.037Z,17.30
2018-09-03T01:03:36.557Z,17.07
2018-09-03T01:04:10.147Z,16.67
2018-09-03T01:04:43.708Z,16.52
2018-09-03T01:05:17.269Z,17.05
2018-09-03T01:05:50.826Z,17.45
2018-09-03T01:06:24.323Z,16.67
2018-09-03T01:06:57.873Z,16.93
2018-09-03T01:07:31.437Z,16.37
2018-09-03T01:08:05.027Z,16.95
2018-09-03T01:08:38.568Z,16.95
2018-09-03T01:09:12.090Z,16.73
2018-09-03T01:09:45.578Z,17.17
2018-09-03T01:10:19.119Z,16.82
2018-09-03T01:10:52.697Z,16.60
2018-09-03T01:11:26.236Z,16.65
2018-09-03T01:11:59.792Z,16.70
2018-09-03T01:12:33.325Z,16.70
2018-09-03T01:13:06.893Z,16.90
2018-09-03T01:13:40.443Z,16.77
2018-09-03T01:14:14.027Z,16.35
2018-09-03T01:14:47.505Z,16.77
2018-09-03T01:15:21.143Z,16.37
2018-09-03T01:15:54.721Z,16.73
2018-09-03T01:16:28.299Z,16.23
2018-09-03T01:17:01.851Z,16.23
2018-09-03T01:17:35.378Z,16.50
2018-09-03T01:18:08.953Z,15.90
2018-09-03T01:18:44.377Z,16.27
2018-09-03T01:19:17.907Z,16.27
2018-09-03T01:19:51.419Z,16.93
2018-09-03T01:20:24.909Z,16.55
2018-09-03T01:20:58.437Z,16.75
2018-09-03T01:21:32.018Z,16.23
2018-09-03T01:22:05.987Z,16.73
2018-09-03T01:22:39.529Z,16.20
2018-09-03T01:23:13.050Z,17.02
2018-09-03T01:23:46.543Z,16.90
2018-09-03T01:24:20.113Z,16.90
2018-09-03T01:24:53.654Z,16.40
2018-09-03T01:25:27.373Z,16.67
2018-09-03T01:26:00.920Z,16.30
2018-09-03T01:26:34.422Z,16.80
2018-09-03T01:27:07.971Z,16.40
2018-09-03T01:27:41.501Z,15.40
2018-09-03T01:28:14.997Z,16.27
2018-09-03T01:28:48.527Z,15.90
2018-09-03T01:29:22.045Z,15.80
2018-09-03T01:29:55.588Z,15.85
2018-09-03T01:30:29.222Z,16.45
2018-09-03T01:31:02.798Z,16.62
2018-09-03T01:31:36.361Z,16.62
2018-09-03T01:32:09.898Z,16.93
2018-09-03T01:32:43.462Z,16.65
2018-09-03T01:33:16.986Z,16.15
2018-09-03T01:33:52.654Z,16.00
2018-09-03T01:34:26.718Z,16.23
2018-09-03T01:35:00.295Z,15.53
2018-09-03T01:35:33.821Z,16.60
2018-09-03T01:36:07.519Z,15.35
2018-09-03T01:36:41.091Z,16.10
2018-09-03T01:37:14.623Z,15.90
2018-09-03T01:37:48.114Z,16.30
2018-09-03T01:38:21.685Z,16.12
2018-09-03T01:38:55.210Z,16.02
2018-09-03T01:39:28.759Z,16.77
2018-09-03T01:40:02.331Z,15.43
2018-09-03T01:40:35.862Z,15.93
2018-09-03T01:41:09.393Z,15.70
2018-09-03T01:41:42.930Z,15.80
2018-09-03T01:42:16.533Z,15.90
2018-09-03T01:42:50.071Z,16.42
2018-09-03T01:43:23.573Z,15.90
2018-09-03T01:43:57.149Z,15.98
2018-09-03T01:44:30.695Z,16.07
2018-09-03T01:45:04.605Z,15.45
2018-09-03T01:45:38.222Z,15.18
2018-09-03T01:46:11.751Z,15.58
2018-09-03T01:46:45.338Z,15.10
2018-09-03T01:47:18.883Z,15.58
2018-09-03T01:47:52.454Z,14.90
2018-09-03T01:48:26.025Z,14.45
2018-09-03T01:48:59.559Z,15.25
2018-09-03T01:49:33.142Z,15.23
2018-09-03T01:50:06.732Z,15.30
2018-09-03T01:50:40.246Z,15.15
2018-09-03T01:51:13.769Z,15.70
2018-09-03T01:51:47.303Z,14.60
2018-09-03T01:52:20.859Z,14.87
2018-09-03T01:52:54.363Z,14.87
2018-09-03T01:53:27.879Z,14.93
2018-09-03T01:54:01.408Z,14.50
2018-09-03T01:54:34.943Z,14.58
2018-09-03T01:55:08.559Z,15.08
2018-09-03T01:55:42.080Z,15.45
2018-09-03T01:56:15.595Z,14.80
2018-09-03T01:56:49.100Z,14.53
2018-09-03T01:57:22.790Z,15.38
2018-09-03T01:57:56.311Z,14.70
2018-09-03T01:58:29.850Z,15.18
2018-09-03T01:59:03.453Z,14.55
2018-09-03T01:59:36.969Z,14.73
2018-09-03T02:00:10.537Z,14.63
2018-09-03T02:00:44.058Z,14.47
2018-09-03T02:01:17.605Z,14.68
2018-09-03T02:01:51.120Z,14.30
2018-09-03T02:02:24.638Z,14.80
2018-09-03T02:02:58.176Z,14.93
2018-09-03T02:03:31.914Z,14.60
2018-09-03T02:04:05.774Z,14.93
2018-09-03T02:04:39.315Z,14.07
2018-09-03T02:05:12.892Z,14.43
2018-09-03T02:05:46.442Z,15.15
2018-09-03T02:06:20.205Z,14.30
2018-09-03T02:06:53.744Z,13.90
2018-09-03T02:07:27.333Z,14.15
2018-09-03T02:08:00.826Z,14.53
2018-09-03T02:08:34.383Z,13.98
2018-09-03T02:09:11.016Z,14.23
2018-09-03T02:09:44.534Z,14.43
2018-09-03T02:10:18.072Z,14.63
2018-09-03T02:10:51.804Z,14.60
2018-09-03T02:11:25.356Z,14.60
2018-09-03T02:11:58.890Z,14.33
2018-09-03T02:12:32.434Z,14.13
2018-09-03T02:13:06.192Z,14.87
2018-09-03T02:13:39.794Z,14.47
2018-09-03T02:14:13.372Z,14.28
2018-09-03T02:14:46.876Z,14.83
2018-09-03T02:15:20.452Z,14.50
2018-09-03T02:15:54.003Z,14.98
2018-09-03T02:16:27.524Z,14.47
2018-09-03T02:17:01.053Z,14.30
2018-09-03T02:17:34.626Z,14.50
2018-09-03T02:18:08.178Z,14.68
2018-09-03T02:18:41.716Z,14.58
2018-09-03T02:19:15.244Z,14.60
2018-09-03T02:19:48.756Z,14.18
2018-09-03T02:20:22.294Z,14.47
2018-09-03T02:20:56.044Z,13.60
2018-09-03T02:21:29.577Z,14.65
2018-09-03T02:22:03.114Z,13.65
2018-09-03T02:22:36.664Z,14.23
2018-09-03T02:23:10.222Z,14.03
2018-09-03T02:23:43.760Z,13.83
2018-09-03T02:24:17.326Z,14.73
2018-09-03T02:24:50.832Z,13.93
2018-09-03T02:25:24.368Z,13.95
2018-09-03T02:25:57.902Z,14.03
2018-09-03T02:26:31.614Z,14.30
2018-09-03T02:27:05.185Z,13.60
2018-09-03T02:27:38.750Z,14.18
2018-09-03T02:28:12.603Z,14.18
2018-09-03T02:28:46.126Z,14.30
2018-09-03T02:29:19.660Z,14.40
2018-09-03T02:29:53.188Z,13.90
2018-09-03T02:30:26.703Z,13.90
2018-09-03T02:31:00.244Z,14.15
2018-09-03T02:31:33.822Z,13.48
2018-09-03T02:32:07.393Z,13.70
2018-09-03T02:32:41.005Z,13.40
2018-09-03T02:33:14.560Z,14.05
2018-09-03T02:33:48.083Z,13.43
2018-09-03T02:34:21.607Z,13.15
2018-09-03T02:34:55.138Z,13.27
2018-09-03T02:35:28.696Z,12.93
2018-09-03T02:36:02.231Z,13.53
2018-09-03T02:36:35.798Z,13.13
2018-09-03T02:37:09.353Z,13.30
2018-09-03T02:37:42.939Z,13.38
2018-09-03T02:38:16.642Z,13.78
2018-09-03T02:38:50.242Z,13.38
2018-09-03T02:39:23.862Z,13.20
2018-09-03T02:39:57.529Z,13.22
2018-09-03T02:40:31.136Z,13.32
2018-09-03T02:41:05.004Z,13.65
2018-09-03T02:41:38.518Z,13.38
2018-09-03T02:42:12.004Z,13.55
2018-09-03T02:42:45.533Z,12.50
2018-09-03T02:43:19.232Z,12.73
2018-09-03T02:43:52.764Z,12.58
2018-09-03T02:44:26.284Z,12.88
2018-09-03T02:44:59.852Z,13.28
2018-09-03T02:45:33.412Z,13.15
2018-09-03T02:46:06.959Z,13.05
2018-09-03T02:46:40.496Z,12.75
2018-09-03T02:47:14.028Z,13.28
2018-09-03T02:47:47.568Z,12.90
2018-09-03T02:48:21.104Z,13.25
2018-09-03T02:48:54.636Z,13.00
2018-09-03T02:49:28.164Z,13.18
2018-09-03T02:50:01.749Z,12.78
2018-09-03T02:50:35.428Z,12.73
2018-09-03T02:51:09.024Z,12.63
2018-09-03T02:51:42.549Z,12.40
2018-09-03T02:52:16.119Z,12.55
2018-09-03T02:52:49.650Z,12.03
2018-09-03T02:53:23.220Z,12.55
2018-09-03T02:53:56.718Z,12.25
2018-09-03T02:54:30.312Z,12.47
2018-09-03T02:55:03.916Z,12.47
2018-09-03T02:55:37.525Z,12.78
2018-09-03T02:56:11.042Z,12.47
2018-09-03T02:56:44.610Z,12.28
2018-09-03T02:57:18.216Z,12.68
2018-09-03T02:57:51.798Z,13.08
2018-09-03T02:58:25.358Z,13.08
2018-09-03T02:58:58.886Z,12.73
2018-09-03T02:59:32.416Z,12.63
2018-09-03T03:00:06.400Z,13.00
2018-09-03T03:00:39.966Z,12.33
2018-09-03T03:01:13.524Z,12.50
2018-09-03T03:01:47.084Z,12.70
2018-09-03T03:02:20.648Z,12.95
2018-09-03T03:02:55.988Z,13.03
2018-09-03T03:03:29.512Z,13.48
2018-09-03T03:04:03.079Z,12.90
2018-09-03T03:04:36.605Z,12.98
2018-09-03T03:05:10.150Z,13.18
2018-09-03T03:05:43.706Z,12.68
2018-09-03T03:06:17.322Z,12.50
2018-09-03T03:06:50.874Z,12.98
2018-09-03T03:07:24.406Z,13.18
2018-09-03T03:07:57.929Z,12.93
2018-09-03T03:08:31.677Z,12.55
2018-09-03T03:09:08.498Z,12.90
2018-09-03T03:09:42.026Z,12.88
2018-09-03T03:10:15.696Z,13.10
2018-09-03T03:10:49.254Z,12.53
2018-09-03T03:11:22.800Z,13.25
2018-09-03T03:11:56.436Z,13.15
2018-09-03T03:12:29.915Z,13.05
2018-09-03T03:13:03.466Z,13.28
2018-09-03T03:13:36.994Z,12.60
2018-09-03T03:14:10.565Z,13.40
2018-09-03T03:14:44.116Z,12.70
2018-09-03T03:15:17.730Z,12.45
2018-09-03T03:15:51.310Z,13.13
2018-09-03T03:16:24.854Z,12.93
2018-09-03T03:16:58.386Z,13.05
2018-09-03T03:17:31.986Z,12.63
2018-09-03T03:18:05.780Z,13.15
2018-09-03T03:18:39.342Z,13.22
2018-09-03T03:19:12.948Z,13.30
2018-09-03T03:19:46.490Z,13.28
2018-09-03T03:20:20.046Z,13.08
2018-09-03T03:20:53.583Z,12.90
2018-09-03T03:21:27.140Z,12.65
2018-09-03T03:22:00.696Z,13.25
2018-09-03T03:22:34.321Z,13.32
2018-09-03T03:23:07.882Z,12.95
2018-09-03T03:23:41.374Z,13.13
2018-09-03T03:24:14.906Z,13.13
2018-09-03T03:24:48.894Z,13.22
2018-09-03T03:25:22.432Z,13.28
2018-09-03T03:25:55.990Z,14.07
2018-09-03T03:26:29.518Z,13.30
2018-09-03T03:27:03.064Z,13.45
2018-09-03T03:27:36.576Z,13.15
2018-09-03T03:28:10.125Z,13.88
2018-09-03T03:28:43.672Z,13.93
2018-09-03T03:29:17.296Z,13.72
2018-09-03T03:29:50.813Z,13.22
2018-09-03T03:30:24.432Z,13.50
2018-09-03T03:30:57.970Z,13.08
2018-09-03T03:31:31.502Z,13.30
2018-09-03T03:32:05.062Z,13.20
2018-09-03T03:32:38.904Z,13.65
2018-09-03T03:33:12.426Z,13.53
2018-09-03T03:33:45.922Z,13.18
2018-09-03T03:34:19.434Z,13.78
2018-09-03T03:34:53.000Z,13.28
2018-09-03T03:35:26.544Z,13.45
2018-09-03T03:36:00.097Z,14.40
2018-09-03T03:36:33.707Z,14.15
2018-09-03T03:37:07.616Z,14.45
2018-09-03T03:37:46.029Z,14.00
2018-09-03T03:38:19.646Z,13.85
2018-09-03T03:38:53.193Z,13.75
2018-09-03T03:39:26.726Z,14.03
2018-09-03T03:40:00.268Z,14.33
2018-09-03T03:40:33.818Z,13.88
2018-09-03T03:41:07.378Z,14.10
2018-09-03T03:41:40.912Z,13.40
2018-09-03T03:42:14.444Z,14.28
2018-09-03T03:42:47.998Z,14.07
2018-09-03T03:43:21.554Z,14.30
2018-09-03T03:43:55.180Z,14.00
2018-09-03T03:44:28.744Z,13.32
2018-09-03T03:45:02.298Z,14.50
2018-09-03T03:45:35.817Z,13.70
2018-09-03T03:46:09.335Z,13.62
2018-09-03T03:46:42.890Z,13.18
2018-09-03T03:47:16.465Z,13.43
2018-09-03T03:47:50.017Z,13.30
2018-09-03T03:48:23.555Z,14.45
2018-09-03T03:48:57.120Z,13.40
2018-09-03T03:49:30.678Z,13.18
2018-09-03T03:50:04.332Z,13.93
2018-09-03T03:50:37.896Z,13.80
2018-09-03T03:51:11.420Z,13.58
2018-09-03T03:51:44.981Z,13.53
2018-09-03T03:52:18.544Z,14.13
2018-09-03T03:52:52.142Z,14.10
2018-09-03T03:53:25.646Z,13.98
2018-09-03T03:53:59.169Z,14.40
2018-09-03T03:54:32.696Z,13.60
2018-09-03T03:55:06.955Z,14.60
2018-09-03T03:55:40.498Z,14.23
2018-09-03T03:56:14.033Z,13.95
2018-09-03T03:56:47.628Z,14.25
2018-09-03T03:57:21.160Z,14.30
2018-09-03T03:57:54.698Z,14.15
2018-09-03T03:58:28.224Z,13.80
2018-09-03T03:59:01.782Z,13.50
2018-09-03T03:59:35.296Z,13.70
2018-09-03T04:00:08.901Z,14.00
2018-09-03T04:00:42.426Z,13.80
2018-09-03T04:01:15.934Z,14.05
2018-09-03T04:01:49.556Z,13.98
2018-09-03T04:02:23.098Z,13.50
2018-09-03T04:02:56.632Z,14.28
2018-09-03T04:03:30.192Z,13.88
2018-09-03T04:04:03.724Z,13.93
2018-09-03T04:04:37.250Z,14.10
2018-09-03T04:05:10.796Z,13.60
2018-09-03T04:05:44.366Z,13.75
2018-09-03T04:06:17.888Z,13.62
2018-09-03T04:06:51.444Z,13.95
2018-09-03T04:07:25.386Z,13.55
2018-09-03T04:07:58.944Z,13.78
2018-09-03T04:08:32.444Z,13.62
2018-09-03T04:09:09.360Z,14.15
2018-09-03T04:09:42.922Z,14.00
2018-09-03T04:10:16.444Z,14.15
2018-09-03T04:10:49.975Z,13.58
2018-09-03T04:11:23.512Z,13.93
2018-09-03T04:11:57.028Z,13.80
2018-09-03T04:12:30.568Z,12.98
2018-09-03T04:13:04.606Z,13.83
2018-09-03T04:13:38.508Z,13.35
2018-09-03T04:14:12.048Z,13.85
2018-09-03T04:14:45.568Z,13.93
2018-09-03T04:15:19.094Z,13.65
2018-09-03T04:15:52.682Z,13.68
2018-09-03T04:16:26.211Z,13.28
2018-09-03T04:16:59.796Z,13.85
2018-09-03T04:17:33.316Z,13.43
2018-09-03T04:18:06.841Z,13.58
2018-09-03T04:18:40.389Z,13.55
2018-09-03T04:19:13.883Z,13.70
2018-09-03T04:19:52.841Z,13.95
2018-09-03T04:20:26.360Z,13.72
2018-09-03T04:20:59.884Z,14.20
2018-09-03T04:21:33.436Z,14.18
2018-09-03T04:22:06.960Z,14.55
2018-09-03T04:22:40.608Z,13.62
2018-09-03T04:23:14.257Z,14.15
2018-09-03T04:23:47.698Z,14.20
2018-09-03T04:24:21.282Z,14.30
2018-09-03T04:24:54.796Z,14.05
2018-09-03T04:25:28.342Z,13.85
2018-09-03T04:26:01.840Z,14.23
2018-09-03T04:26:35.386Z,14.98
2018-09-03T04:27:08.958Z,14.45
2018-09-03T04:27:42.532Z,13.65
2018-09-03T04:28:16.102Z,13.95
2018-09-03T04:28:49.712Z,14.30
2018-09-03T04:29:23.234Z,14.55
2018-09-03T04:29:56.776Z,13.78
2018-09-03T04:30:30.366Z,14.28
2018-09-03T04:31:03.904Z,13.70
2018-09-03T04:31:37.400Z,14.38
2018-09-03T04:32:10.948Z,14.20
2018-09-03T04:32:44.562Z,14.58
2018-09-03T04:33:18.170Z,14.15
2018-09-03T04:33:51.706Z,13.53
2018-09-03T04:34:25.396Z,14.63
2018-09-03T04:34:58.914Z,14.47
2018-09-03T04:35:32.420Z,14.58
2018-09-03T04:36:06.015Z,14.33
2018-09-03T04:36:39.560Z,14.25
2018-09-03T04:37:13.123Z,13.40
2018-09-03T04:37:46.701Z,14.77
2018-09-03T04:38:20.277Z,13.80
2018-09-03T04:38:53.859Z,14.68
2018-09-03T04:39:27.458Z,14.68
2018-09-03T04:40:00.976Z,14.30
2018-09-03T04:40:34.535Z,13.95
2018-09-03T04:41:08.290Z,14.63
2018-09-03T04:41:41.838Z,13.75
2018-09-03T04:42:15.357Z,14.30
2018-09-03T04:42:48.888Z,14.65
2018-09-03T04:43:22.423Z,14.38
2018-09-03T04:43:55.952Z,13.75
2018-09-03T04:44:29.472Z,14.30
2018-09-03T04:45:03.080Z,14.13
2018-09-03T04:45:36.624Z,14.78
2018-09-03T04:46:10.194Z,14.20
2018-09-03T04:46:43.908Z,14.68
2018-09-03T04:47:17.436Z,13.88
2018-09-03T04:47:50.984Z,14.58
2018-09-03T04:48:24.499Z,14.28
2018-09-03T04:48:58.017Z,14.50
2018-09-03T04:49:31.628Z,14.25
2018-09-03T04:50:05.379Z,13.90
2018-09-03T04:50:38.908Z,13.88
2018-09-03T04:51:12.595Z,14.40
2018-09-03T04:51:46.108Z,15.38
2018-09-03T04:52:19.634Z,14.15
2018-09-03T04:52:53.216Z,13.93
2018-09-03T04:53:26.791Z,14.63
2018-09-03T04:54:00.313Z,14.10
2018-09-03T04:54:34.050Z,14.03
2018-09-03T04:55:07.669Z,14.25
2018-09-03T04:55:41.173Z,13.72
2018-09-03T04:56:14.689Z,14.60
2018-09-03T04:56:48.211Z,14.38
2018-09-03T04:57:21.709Z,13.88
2018-09-03T04:57:55.236Z,14.13
2018-09-03T04:58:28.768Z,14.23
2018-09-03T04:59:02.328Z,14.38
2018-09-03T04:59:35.879Z,13.95
2018-09-03T05:00:09.474Z,14.58
2018-09-03T05:00:43.032Z,14.45
2018-09-03T05:01:16.693Z,14.18
2018-09-03T05:01:50.303Z,15.13
2018-09-03T05:02:23.886Z,15.15
2018-09-03T05:02:57.481Z,15.53
2018-09-03T05:03:31.036Z,14.93
2018-09-03T05:04:04.608Z,14.18
2018-09-03T05:04:38.141Z,14.10
2018-09-03T05:05:11.653Z,14.28
2018-09-03T05:05:45.280Z,14.80
2018-09-03T05:06:18.743Z,14.53
2018-09-03T05:06:52.287Z,13.80
2018-09-03T05:07:25.829Z,15.13
2018-09-03T05:07:59.341Z,14.65
2018-09-03T05:08:32.863Z,14.50
2018-09-03T05:09:06.786Z,14.03
2018-09-03T05:09:40.364Z,14.10
2018-09-03T05:10:13.906Z,14.47
2018-09-03T05:10:47.490Z,14.60
2018-09-03T05:11:21.076Z,14.38
2018-09-03T05:11:54.608Z,14.80
2018-09-03T05:12:28.160Z,14.07
2018-09-03T05:13:01.711Z,14.15
2018-09-03T05:13:35.259Z,14.25
2018-09-03T05:14:08.825Z,13.75
2018-09-03T05:14:42.341Z,13.80
2018-09-03T05:15:15.870Z,14.35
2018-09-03T05:15:49.412Z,14.03
2018-09-03T05:16:22.951Z,14.07
2018-09-03T05:16:56.487Z,14.13
2018-09-03T05:17:30.205Z,13.78
2018-09-03T05:18:03.757Z,13.80
2018-09-03T05:18:37.304Z,13.83
2018-09-03T05:19:10.852Z,14.00
2018-09-03T05:19:44.392Z,14.30
2018-09-03T05:20:17.935Z,13.80
2018-09-03T05:20:51.504Z,14.20
2018-09-03T05:21:25.096Z,13.80
2018-09-03T05:21:58.648Z,14.00
2018-09-03T05:22:32.163Z,14.17
2018-09-03T05:23:05.956Z,13.88
2018-09-03T05:23:39.501Z,14.00
2018-09-03T05:24:13.037Z,13.95
2018-09-03T05:24:46.572Z,14.23
2018-09-03T05:25:20.113Z,14.03
2018-09-03T05:25:53.624Z,14.03
2018-09-03T05:26:27.341Z,14.00
2018-09-03T05:27:00.971Z,13.58
2018-09-03T05:27:34.528Z,14.43
2018-09-03T05:28:08.077Z,14.23
2018-09-03T05:28:41.668Z,14.53
2018-09-03T05:29:15.197Z,14.35
2018-09-03T05:29:48.756Z,14.58
2018-09-03T05:30:22.276Z,14.68
2018-09-03T05:30:55.825Z,14.28
2018-09-03T05:31:29.381Z,14.50
2018-09-03T05:32:03.122Z,14.45
2018-09-03T05:32:37.016Z,14.68
2018-09-03T05:33:10.643Z,14.68
2018-09-03T05:33:44.230Z,14.98
2018-09-03T05:34:17.739Z,14.58
2018-09-03T05:34:51.278Z,14.83
2018-09-03T05:35:24.792Z,14.63
2018-09-03T05:35:58.288Z,14.60
2018-09-03T05:36:31.827Z,15.00
2018-09-03T05:37:05.392Z,14.90
2018-09-03T05:37:39.008Z,14.55
2018-09-03T05:38:12.550Z,14.93
2018-09-03T05:38:46.221Z,15.00
2018-09-03T05:39:19.752Z,15.15
2018-09-03T05:39:53.280Z,14.83
2018-09-03T05:40:26.839Z,15.20
2018-09-03T05:41:00.356Z,14.70
2018-09-03T05:41:33.918Z,15.32
2018-09-03T05:42:07.556Z,14.73
2018-09-03T05:42:41.089Z,15.20
2018-09-03T05:43:14.671Z,15.80
2018-09-03T05:43:48.183Z,15.35
2018-09-03T05:44:21.729Z,15.50
2018-09-03T05:44:55.276Z,15.18
2018-09-03T05:45:28.826Z,15.10
2018-09-03T05:46:02.574Z,15.30
2018-09-03T05:46:36.664Z,15.70
2018-09-03T05:47:10.241Z,14.98
2018-09-03T05:47:43.832Z,15.03
2018-09-03T05:48:17.358Z,14.78
2018-09-03T05:48:50.898Z,15.40
2018-09-03T05:49:24.504Z,14.78
2018-09-03T05:49:58.045Z,15.85
2018-09-03T05:50:31.628Z,15.05
2018-09-03T05:51:05.698Z,14.98
2018-09-03T05:51:39.300Z,15.08
2018-09-03T05:52:12.842Z,14.98
2018-09-03T05:52:46.435Z,15.48
2018-09-03T05:53:19.988Z,15.28
2018-09-03T05:53:53.520Z,15.68
2018-09-03T05:54:27.069Z,14.95
2018-09-03T05:55:00.604Z,15.03
2018-09-03T05:55:34.220Z,15.43
2018-09-03T05:56:07.806Z,15.30
2018-09-03T05:56:41.321Z,14.95
2018-09-03T05:57:14.825Z,15.18
2018-09-03T05:57:48.368Z,14.85
2018-09-03T05:58:21.888Z,15.53
2018-09-03T05:58:55.495Z,14.53
2018-09-03T05:59:29.010Z,14.95
2018-09-03T06:00:02.671Z,14.73
2018-09-03T06:00:36.186Z,14.50
2018-09-03T06:01:09.704Z,15.32
2018-09-03T06:01:43.276Z,14.35
2018-09-03T06:02:17.046Z,15.25
2018-09-03T06:02:50.556Z,14.53
2018-09-03T06:03:24.098Z,14.90
2018-09-03T06:03:57.715Z,14.87
2018-09-03T06:04:31.289Z,15.30
2018-09-03T06:05:05.174Z,14.58
2018-09-03T06:05:38.700Z,14.83
2018-09-03T06:06:12.212Z,15.28
2018-09-03T06:06:45.739Z,14.55
2018-09-03T06:07:19.274Z,14.10
2018-09-03T06:07:52.848Z,14.95
2018-09-03T06:08:26.388Z,14.05
2018-09-03T06:08:59.880Z,14.30
2018-09-03T06:09:33.382Z,14.35
2018-09-03T06:10:06.944Z,14.40
2018-09-03T06:10:40.537Z,14.10
2018-09-03T06:11:14.047Z,14.18
2018-09-03T06:11:47.607Z,13.98
2018-09-03T06:12:21.180Z,14.38
2018-09-03T06:12:54.709Z,13.70
2018-09-03T06:13:28.256Z,13.85
2018-09-03T06:14:01.767Z,14.40
2018-09-03T06:14:35.327Z,14.28
2018-09-03T06:15:08.902Z,13.43
2018-09-03T06:15:42.487Z,13.58
2018-09-03T06:16:16.060Z,13.90
2018-09-03T06:16:49.614Z,13.83
2018-09-03T06:17:23.184Z,14.28
2018-09-03T06:17:56.802Z,13.78
2018-09-03T06:18:30.281Z,14.25
2018-09-03T06:19:03.854Z,13.78
2018-09-03T06:19:37.374Z,13.83
2018-09-03T06:20:10.905Z,13.83
2018-09-03T06:20:44.552Z,13.38
2018-09-03T06:21:18.084Z,13.68
2018-09-03T06:21:51.606Z,13.62
2018-09-03T06:22:25.129Z,13.28
2018-09-03T06:22:58.649Z,14.18
2018-09-03T06:23:32.253Z,13.72
2018-09-03T06:24:06.112Z,13.32
2018-09-03T06:24:39.842Z,13.75
2018-09-03T06:25:13.372Z,13.68
2018-09-03T06:25:46.908Z,13.55
2018-09-03T06:26:20.458Z,13.62
2018-09-03T06:26:53.972Z,13.15
2018-09-03T06:27:27.520Z,13.68
2018-09-03T06:28:01.068Z,13.30
2018-09-03T06:28:34.628Z,13.32
2018-09-03T06:29:08.210Z,13.55
2018-09-03T06:29:41.726Z,13.20
2018-09-03T06:30:15.279Z,13.50
2018-09-03T06:30:48.872Z,13.72
2018-09-03T06:31:22.452Z,13.70
2018-09-03T06:31:56.006Z,13.78
2018-09-03T06:32:29.522Z,13.43
2018-09-03T06:33:03.120Z,13.28
2018-09-03T06:33:36.686Z,13.65
2018-09-03T06:34:10.228Z,13.60
2018-09-03T06:34:43.766Z,13.48
2018-09-03T06:35:17.290Z,13.68
2018-09-03T06:35:50.810Z,13.15
2018-09-03T06:36:24.358Z,13.43
2018-09-03T06:36:58.197Z,13.50
2018-09-03T06:37:31.724Z,13.72
2018-09-03T06:38:05.399Z,13.48
2018-09-03T06:38:39.046Z,13.13
2018-09-03T06:39:12.653Z,12.93
2018-09-03T06:39:46.180Z,13.95
2018-09-03T06:40:19.752Z,13.20
2018-09-03T06:40:53.284Z,13.88
2018-09-03T06:41:26.845Z,13.60
2018-09-03T06:42:00.379Z,13.22
2018-09-03T06:42:34.043Z,13.18
2018-09-03T06:43:07.569Z,13.48
2018-09-03T06:43:41.109Z,13.53
2018-09-03T06:44:14.636Z,13.55
2018-09-03T06:44:48.203Z,13.20
2018-09-03T06:45:21.778Z,12.58
2018-09-03T06:45:55.345Z,13.50
2018-09-03T06:46:28.873Z,13.65
2018-09-03T06:47:02.461Z,12.82
2018-09-03T06:47:36.030Z,13.30
2018-09-03T06:48:09.544Z,12.82
2018-09-03T06:48:43.087Z,12.35
2018-09-03T06:49:16.608Z,13.48
2018-09-03T06:49:50.224Z,12.90
2018-09-03T06:50:23.794Z,12.75
2018-09-03T06:50:57.327Z,13.05
2018-09-03T06:51:30.860Z,12.95
2018-09-03T06:52:04.487Z,12.70
2018-09-03T06:52:38.044Z,13.20
2018-09-03T06:53:11.626Z,12.90
2018-09-03T06:53:45.533Z,13.10
2018-09-03T06:54:19.084Z,13.28
2018-09-03T06:54:52.684Z,13.18
2018-09-03T06:55:26.204Z,13.03
2018-09-03T06:55:59.736Z,13.32
2018-09-03T06:56:33.294Z,13.05
2018-09-03T06:57:06.843Z,13.30
2018-09-03T06:57:40.944Z,13.35
2018-09-03T06:58:14.452Z,13.38
2018-09-03T06:58:47.985Z,13.45
2018-09-03T06:59:21.560Z,13.43
2018-09-03T06:59:55.075Z,13.55
2018-09-03T07:00:28.679Z,13.15
2018-09-03T07:01:02.259Z,13.68
2018-09-03T07:01:36.263Z,13.93
2018-09-03T07:02:09.800Z,13.90
2018-09-03T07:02:43.392Z,13.10
2018-09-03T07:03:16.973Z,13.68
2018-09-03T07:03:50.557Z,13.43
2018-09-03T07:04:24.084Z,12.95
2018-09-03T07:04:57.650Z,13.50
2018-09-03T07:05:31.152Z,12.75
2018-09-03T07:06:05.195Z,13.78
2018-09-03T07:06:38.738Z,13.65
2018-09-03T07:07:12.290Z,13.25
2018-09-03T07:07:45.908Z,13.43
2018-09-03T07:08:19.460Z,13.57
2018-09-03T07:08:53.032Z,13.50
2018-09-03T07:09:26.552Z,13.20
2018-09-03T07:10:00.178Z,14.45
2018-09-03T07:10:33.790Z,13.75
2018-09-03T07:11:07.846Z,13.65
2018-09-03T07:11:41.391Z,14.23
2018-09-03T07:12:14.909Z,13.70
2018-09-03T07:12:48.418Z,13.98
2018-09-03T07:13:21.988Z,13.75
2018-09-03T07:13:55.552Z,14.43
2018-09-03T07:14:29.088Z,14.20
2018-09-03T07:15:02.684Z,14.60